Time;durP1;ratioP1;P1;durP2;ratioP2;P2;SDS_P1;SDS_P2;PMS_P1;PMS_P2;Temp;Humidity;BMP_temperature;BMP_pressure;BME280_temperature;BME280_humidity;BME280_pressure;Samples;Min_cycle;Max_cycle;Signal;HPM_P1;HPM_P2
2021/01/24 00:04:07;;;;;;;6.45;4.07;;;;;;;1.33;100.00;99492.44;10414247;28;20835;-76
2021/01/24 00:09:07;;;;;;;7.15;3.60;;;;;;;1.21;100.00;99480.63;10427936;28;20037;-80
2021/01/24 00:14:08;;;;;;;7.30;3.67;;;;;;;0.94;100.00;99454.59;10420085;28;20076;-77
2021/01/24 00:19:08;;;;;;;10.68;5.30;;;;;;;1.03;100.00;99453.41;10427540;28;20037;-76
2021/01/24 00:24:09;;;;;;;10.60;5.65;;;;;;;1.31;100.00;99484.00;10427192;28;20383;-76
2021/01/24 00:29:10;;;;;;;9.55;4.68;;;;;;;1.03;100.00;99426.03;10422670;28;20526;-78
2021/01/24 00:34:10;;;;;;;8.73;4.47;;;;;;;1.07;100.00;99416.28;10424568;28;20040;-79
2021/01/24 00:39:10;;;;;;;8.35;4.75;;;;;;;1.58;100.00;99499.34;10421709;28;20610;-79
2021/01/24 00:44:11;;;;;;;10.32;6.25;;;;;;;1.63;100.00;99496.47;10442528;28;20056;-78
2021/01/24 00:49:14;;;;;;;13.52;7.30;;;;;;;1.14;100.00;99427.16;10448231;28;20049;-76
2021/01/24 00:54:17;;;;;;;15.52;6.82;;;;;;;1.46;100.00;99470.06;10437366;28;20033;-76
2021/01/24 00:59:17;;;;;;;11.38;5.30;;;;;;;1.29;100.00;99439.03;10431821;28;20048;-77
2021/01/24 01:04:18;;;;;;;10.70;5.40;;;;;;;1.33;100.00;99449.81;10440339;28;20052;-77
2021/01/24 01:09:18;;;;;;;15.35;6.90;;;;;;;1.57;100.00;99487.13;10448036;28;20057;-77
2021/01/24 01:14:18;;;;;;;12.85;7.50;;;;;;;1.25;100.00;99433.63;10438773;28;20690;-77
2021/01/24 01:19:19;;;;;;;18.20;6.97;;;;;;;1.87;100.00;99545.56;10425736;28;20908;-79
2021/01/24 01:24:19;;;;;;;16.65;6.68;;;;;;;1.81;100.00;99544.22;10445922;28;20565;-76
2021/01/24 01:29:22;;;;;;;9.52;5.82;;;;;;;1.30;100.00;99469.13;10425753;28;20117;-76
2021/01/24 01:34:22;;;;;;;14.52;6.35;;;;;;;1.68;100.00;99540.75;10417251;28;20033;-79
2021/01/24 01:39:25;;;;;;;15.43;8.00;;;;;;;1.61;100.00;99538.63;10441539;28;20034;-76
2021/01/24 01:44:25;;;;;;;22.67;8.48;;;;;;;1.44;100.00;99510.31;10427209;28;20069;-77
2021/01/24 01:49:26;;;;;;;19.42;7.90;;;;;;;1.23;100.00;99478.44;10418141;28;20041;-77
2021/01/24 01:54:26;;;;;;;12.48;5.65;;;;;;;1.80;100.00;99563.97;10422926;28;20048;-76
2021/01/24 01:59:27;;;;;;;6.03;2.83;;;;;;;1.86;100.00;99594.66;10387719;28;20098;-76
2021/01/24 02:04:37;;;;;;;7.93;3.70;;;;;;;1.81;100.00;99587.63;10421606;28;20045;-76
2021/01/24 02:09:55;;;;;;;6.65;2.33;;;;;;;1.81;100.00;99581.50;10398004;28;20025;-75
2021/01/24 02:15:05;;;;;;;4.35;1.30;;;;;;;1.62;100.00;99553.53;10401468;28;20130;-78
2021/01/24 02:20:07;;;;;;;5.18;1.00;;;;;;;1.88;100.00;99592.41;10421566;28;20037;-76
2021/01/24 02:25:17;;;;;;;1.80;0.55;;;;;;;1.43;100.00;99545.25;10407522;28;20061;-79
2021/01/24 02:30:31;;;;;;;2.58;0.50;;;;;;;1.62;100.00;99596.16;10403768;28;20139;-76
2021/01/24 02:35:35;;;;;;;0.73;0.40;;;;;;;1.05;100.00;99538.25;10408050;28;20043;-78
2021/01/24 02:40:37;;;;;;;1.08;0.50;;;;;;;1.12;100.00;99605.03;10405530;28;20053;-76
2021/01/24 02:45:44;;;;;;;3.08;0.70;;;;;;;0.25;100.00;99483.31;10408731;28;20037;-76
2021/01/24 02:50:45;;;;;;;2.17;0.63;;;;;;;0.98;100.00;99599.19;10420700;28;20124;-76
2021/01/24 02:55:46;;;;;;;1.00;0.60;;;;;;;1.20;100.00;99632.69;10426384;28;20045;-75
2021/01/24 03:00:47;;;;;;;1.00;0.40;;;;;;;0.78;99.50;99566.97;10420430;28;20029;-78
2021/01/24 03:05:50;;;;;;;2.15;0.90;;;;;;;1.36;99.43;99667.50;10442040;28;20105;-79
2021/01/24 03:10:51;;;;;;;2.22;0.47;;;;;;;1.30;99.31;99658.16;10413884;28;20040;-78
2021/01/24 03:15:54;;;;;;;1.40;0.60;;;;;;;1.12;100.00;99626.34;10421538;28;20029;-76
2021/01/24 03:20:56;;;;;;;1.88;0.60;;;;;;;1.23;100.00;99670.09;10421387;28;20474;-75
2021/01/24 03:25:57;;;;;;;2.58;0.80;;;;;;;1.33;100.00;99673.47;10444461;28;20037;-78
2021/01/24 03:30:58;;;;;;;6.25;1.02;;;;;;;1.18;100.00;99667.63;10423891;28;20059;-78
2021/01/24 03:35:58;;;;;;;1.27;0.60;;;;;;;1.19;100.00;99673.72;10434935;28;20050;-76
2021/01/24 03:40:59;;;;;;;2.60;0.60;;;;;;;0.97;100.00;99661.53;10442115;28;20053;-78
2021/01/24 03:45:59;;;;;;;2.15;0.50;;;;;;;1.17;100.00;99682.03;10435366;28;20047;-76
2021/01/24 03:51:00;;;;;;;2.58;0.45;;;;;;;0.67;100.00;99613.66;10461008;28;20063;-77
2021/01/24 03:56:00;;;;;;;3.35;0.50;;;;;;;1.11;100.00;99701.97;10450789;28;20056;-78
2021/01/24 04:01:01;;;;;;;2.47;0.50;;;;;;;0.75;100.00;99682.00;10424284;28;20653;-79
2021/01/24 04:06:01;;;;;;;2.15;0.60;;;;;;;0.31;100.00;99620.25;10432985;28;20477;-76
2021/01/24 04:11:02;;;;;;;2.28;0.60;;;;;;;0.99;100.00;99717.88;10463401;28;20512;-76
2021/01/24 04:16:03;;;;;;;3.20;0.80;;;;;;;0.51;100.00;99639.25;10441661;28;20041;-78
2021/01/24 04:21:04;;;;;;;2.83;0.80;;;;;;;0.56;100.00;99636.41;10435021;28;20036;-77
2021/01/24 04:26:04;;;;;;;2.63;1.20;;;;;;;0.83;100.00;99689.13;10429633;28;20060;-78
2021/01/24 04:31:05;;;;;;;3.92;1.40;;;;;;;0.68;100.00;99639.13;10422531;28;20040;-76
2021/01/24 04:36:06;;;;;;;7.35;1.30;;;;;;;1.15;100.00;99705.53;10456639;28;20659;-76
2021/01/24 04:41:06;;;;;;;5.15;1.35;;;;;;;1.15;100.00;99689.56;10442238;28;20636;-78
2021/01/24 04:46:10;;;;;;;7.60;1.60;;;;;;;1.14;100.00;99693.34;10420463;28;20047;-79
2021/01/24 04:51:10;;;;;;;10.90;1.02;;;;;;;1.34;100.00;99709.63;10408320;28;20060;-78
2021/01/24 04:56:11;;;;;;;3.25;0.98;;;;;;;1.61;100.00;99733.09;10452032;28;20036;-78
2021/01/24 05:01:13;;;;;;;4.05;1.38;;;;;;;1.74;100.00;99735.81;10438630;28;20043;-76
2021/01/24 05:06:14;;;;;;;9.27;1.70;;;;;;;1.61;100.00;99733.09;10426705;28;20025;-79
2021/01/24 05:11:14;;;;;;;6.65;1.65;;;;;;;1.64;100.00;99747.63;10412243;28;20087;-76
2021/01/24 05:16:15;;;;;;;2.33;1.60;;;;;;;0.90;100.00;99634.66;10407632;28;20047;-77
2021/01/24 05:21:18;;;;;;;8.15;2.60;;;;;;;1.37;100.00;99717.00;10432309;28;20033;-77
2021/01/24 05:26:19;;;;;;;13.05;3.50;;;;;;;1.40;100.00;99711.00;10437347;28;20020;-77
2021/01/24 05:31:23;;;;;;;9.45;3.22;;;;;;;1.92;100.00;99779.84;10427533;28;20663;-77
2021/01/24 05:36:24;;;;;;;8.05;3.03;;;;;;;1.84;100.00;99778.06;10422959;28;20143;-76
2021/01/24 05:41:29;;;;;;;10.45;3.90;;;;;;;1.49;100.00;99735.69;10441803;28;20416;-76
2021/01/24 05:46:35;;;;;;;13.57;4.20;;;;;;;1.30;100.00;99690.09;10489731;28;20512;-77
2021/01/24 05:51:39;;;;;;;13.95;5.30;;;;;;;1.85;100.00;99784.94;10470736;28;20040;-77
2021/01/24 05:56:40;;;;;;;15.97;5.43;;;;;;;1.93;100.00;99792.09;10446818;28;20052;-78
2021/01/24 06:01:48;;;;;;;17.45;4.93;;;;;;;1.91;100.00;99796.97;10467953;28;20054;-78
2021/01/24 06:06:51;;;;;;;11.68;4.82;;;;;;;1.44;100.00;99733.22;10447728;28;20081;-77
2021/01/24 06:11:52;;;;;;;9.57;4.72;;;;;;;1.94;100.00;99793.66;10470597;28;20120;-77
2021/01/24 06:16:52;;;;;;;15.55;5.57;;;;;;;1.84;100.00;99770.06;10470819;28;21958;-77
2021/01/24 06:21:54;;;;;;;14.75;5.30;;;;;;;2.05;100.00;99821.47;10482729;28;20047;-76
2021/01/24 06:26:58;;;;;;;15.75;5.97;;;;;;;2.16;100.00;99815.72;10455750;28;20044;-77
2021/01/24 06:32:01;;;;;;;13.30;5.38;;;;;;;2.21;99.51;99823.53;10462359;28;20039;-77
2021/01/24 06:37:07;;;;;;;15.88;5.75;;;;;;;2.22;99.33;99822.44;10461850;28;20039;-79
2021/01/24 06:42:10;;;;;;;13.95;5.30;;;;;;;2.23;99.68;99821.31;10447343;28;20516;-79
2021/01/24 06:47:39;;;;;;;20.20;5.82;;;;;;;2.20;98.17;99828.06;10429070;28;20427;-79
2021/01/24 06:52:40;;;;;;;19.05;5.47;;;;;;;2.00;97.66;99824.34;10420998;28;20036;-76
2021/01/24 06:57:40;;;;;;;17.77;5.85;;;;;;;1.62;97.56;99760.50;10410418;28;20134;-76
2021/01/24 07:02:41;;;;;;;13.80;5.80;;;;;;;1.55;97.77;99766.34;10415610;28;20055;-78
2021/01/24 07:07:46;;;;;;;20.67;5.28;;;;;;;1.85;97.62;99800.94;10429102;28;20062;-79
2021/01/24 07:12:46;;;;;;;14.80;4.95;;;;;;;1.97;96.29;99834.84;10428196;28;20109;-79
2021/01/24 07:17:55;;;;;;;18.15;5.30;;;;;;;2.02;95.70;99853.31;10446247;28;20043;-80
2021/01/24 07:22:56;;;;;;;11.10;4.70;;;;;;;1.85;95.54;99854.22;10444882;28;20049;-79
2021/01/24 07:27:58;;;;;;;13.00;3.95;;;;;;;1.86;94.52;99882.44;10417216;28;20444;-79
2021/01/24 07:32:59;;;;;;;9.68;4.07;;;;;;;1.61;95.11;99868.94;10430319;28;20040;-79
2021/01/24 07:37:59;;;;;;;13.27;5.05;;;;;;;1.73;94.50;99915.44;10442373;28;20374;-79
2021/01/24 07:43:00;;;;;;;13.75;3.63;;;;;;;1.59;94.21;99899.69;10408821;28;20061;-79
2021/01/24 07:48:02;;;;;;;11.60;3.97;;;;;;;1.55;94.57;99899.53;10417093;28;20041;-79
2021/01/24 07:53:03;;;;;;;18.67;6.95;;;;;;;1.39;94.63;99901.19;10416881;28;20044;-78
2021/01/24 07:58:05;;;;;;;11.02;3.28;;;;;;;1.12;94.69;99865.09;10412963;28;20402;-79
2021/01/24 08:03:05;;;;;;;13.43;4.78;;;;;;;1.23;95.34;99899.03;10414925;28;20049;-80
2021/01/24 08:08:09;;;;;;;9.70;3.22;;;;;;;1.36;95.55;99923.13;10390931;28;20032;-79
2021/01/24 08:13:09;;;;;;;16.83;4.10;;;;;;;1.12;94.78;99887.19;10383883;28;20130;-76
2021/01/24 08:18:10;;;;;;;10.43;3.45;;;;;;;1.43;93.84;99934.06;10401772;28;20032;-79
2021/01/24 08:23:12;;;;;;;15.48;3.95;;;;;;;1.49;93.78;99948.75;10421086;28;20053;-77
2021/01/24 08:28:12;;;;;;;;;;;;;;;1.57;92.34;99966.56;10395761;28;20218;-76
2021/01/24 08:33:18;;;;;;;16.75;3.90;;;;;;;1.72;91.35;99977.81;10412734;28;19924;-77
2021/01/24 08:38:20;;;;;;;13.32;3.45;;;;;;;1.41;91.90;99920.25;10408448;28;20282;-77
2021/01/24 08:43:20;;;;;;;12.20;3.57;;;;;;;0.99;91.60;99840.28;10436451;28;20056;-77
2021/01/24 08:48:24;;;;;;;10.05;3.75;;;;;;;1.37;91.03;99900.72;10442084;28;20060;-77
2021/01/24 08:53:26;;;;;;;9.07;3.35;;;;;;;1.99;89.38;99956.03;10408961;28;20401;-77
2021/01/24 08:58:28;;;;;;;7.68;2.95;;;;;;;2.04;88.74;99950.50;10424666;28;20194;-77
2021/01/24 09:03:28;;;;;;;10.55;3.63;;;;;;;1.87;86.96;99910.66;10409633;28;20033;-77
2021/01/24 09:08:29;;;;;;;10.77;3.25;;;;;;;2.39;87.08;99974.28;10425692;28;20064;-78
2021/01/24 09:13:29;;;;;;;9.13;3.90;;;;;;;1.79;86.14;99860.88;10429613;28;20490;-78
2021/01/24 09:18:29;;;;;;;10.10;3.22;;;;;;;3.46;79.80;99955.06;10452401;28;20044;-77
2021/01/24 09:23:30;;;;;;;7.32;3.35;;;;;;;3.70;75.77;99880.25;10407080;28;20067;-76
2021/01/24 09:28:33;;;;;;;11.38;3.30;;;;;;;5.14;72.61;99975.25;10440059;28;20032;-77
2021/01/24 09:33:34;;;;;;;12.00;2.63;;;;;;;5.89;68.11;99951.03;10422511;28;20076;-77
2021/01/24 09:38:34;;;;;;;8.27;2.90;;;;;;;6.38;64.87;99900.75;10432682;28;20144;-77
2021/01/24 09:43:35;;;;;;;8.93;2.75;;;;;;;7.28;64.88;99999.91;10444035;28;20052;-77
2021/01/24 09:48:35;;;;;;;8.95;3.40;;;;;;;7.41;64.39;99971.72;10425677;28;20469;-78
2021/01/24 09:53:36;;;;;;;8.63;3.10;;;;;;;7.54;63.87;99991.91;10446125;28;20098;-78
2021/01/24 09:58:37;;;;;;;7.50;3.25;;;;;;;6.99;65.79;99953.69;10430394;28;20024;-78
2021/01/24 10:03:37;;;;;;;7.47;3.65;;;;;;;5.93;68.75;99959.97;10422498;28;20035;-78
2021/01/24 10:08:38;;;;;;;12.68;4.32;;;;;;;6.01;71.58;99995.03;10420646;28;20029;-77
2021/01/24 10:13:39;;;;;;;10.35;4.70;;;;;;;5.93;70.88;99989.47;10437185;28;20037;-77
2021/01/24 10:18:42;;;;;;;9.07;4.93;;;;;;;6.05;72.44;99996.66;10441721;28;20124;-74
2021/01/24 10:23:43;;;;;;;11.65;4.63;;;;;;;5.73;71.95;99969.06;10418813;28;20417;-74
2021/01/24 10:28:43;;;;;;;11.77;5.47;;;;;;;5.83;73.46;100000.72;10439538;28;20025;-80
2021/01/24 10:33:45;;;;;;;11.88;5.88;;;;;;;5.06;74.68;99937.56;10410430;28;20127;-79
2021/01/24 10:38:47;;;;;;;15.90;5.95;;;;;;;4.68;77.23;99969.41;10408224;28;20493;-80
2021/01/24 10:43:47;;;;;;;12.02;5.95;;;;;;;4.41;76.50;99931.59;10414312;28;20053;-77
2021/01/24 10:48:51;;;;;;;12.60;5.72;;;;;;;4.51;76.89;99976.59;10446675;28;20405;-83
2021/01/24 10:53:51;;;;;;;15.10;5.25;;;;;;;4.27;78.16;99972.09;10444237;28;20040;-80
2021/01/24 10:58:52;;;;;;;14.57;6.15;;;;;;;4.02;78.68;99955.28;10439990;28;20440;-77
2021/01/24 11:03:52;;;;;;;11.65;6.10;;;;;;;4.10;78.83;99981.16;10423234;28;20041;-83
2021/01/24 11:08:53;;;;;;;15.57;6.88;;;;;;;3.77;80.35;99923.25;10439510;28;20098;-82
2021/01/24 11:13:53;;;;;;;15.38;7.57;;;;;;;3.88;80.81;99949.50;10435991;28;20043;-78
2021/01/24 11:18:53;;;;;;;17.50;6.93;;;;;;;4.14;79.75;99990.06;10419065;28;20480;-79
2021/01/24 11:23:56;;;;;;;12.18;6.43;;;;;;;4.29;80.07;99985.16;10442105;28;20047;-82
2021/01/24 11:28:57;;;;;;;13.45;7.00;;;;;;;4.15;79.51;99980.91;10441612;28;20152;-78
2021/01/24 11:33:57;;;;;;;17.17;8.13;;;;;;;3.72;80.69;99926.16;10402744;28;20215;-82
2021/01/24 11:38:58;;;;;;;17.98;8.57;;;;;;;3.73;80.51;99906.31;10402578;28;21170;-81
2021/01/24 11:43:59;;;;;;;18.88;8.27;;;;;;;4.46;79.26;99987.56;10425324;28;20063;-76
2021/01/24 11:48:59;;;;;;;14.75;7.85;;;;;;;4.27;79.79;99976.69;10409594;28;20045;-84
2021/01/24 11:54:00;;;;;;;19.92;8.80;;;;;;;4.00;79.73;99942.28;10445177;28;20040;-79
2021/01/24 11:59:00;;;;;;;11.88;6.68;;;;;;;3.87;80.20;99929.25;10464355;28;20605;-82
2021/01/24 12:04:01;;;;;;;16.13;7.05;;;;;;;3.91;80.55;99922.13;10450435;28;20045;-77
2021/01/24 12:09:01;;;;;;;14.48;7.75;;;;;;;3.91;79.31;99938.16;10435145;28;20032;-79
2021/01/24 12:14:03;;;;;;;15.65;7.95;;;;;;;3.76;79.54;99900.31;10449831;28;20041;-77
2021/01/24 12:19:03;;;;;;;15.07;7.95;;;;;;;4.07;80.09;99968.47;10472334;28;20029;-78
2021/01/24 12:24:04;;;;;;;14.23;7.57;;;;;;;4.06;78.67;99987.50;10470865;28;20067;-79
2021/01/24 12:29:04;;;;;;;20.63;7.75;;;;;;;3.54;80.21;99908.78;10460851;28;20055;-85
2021/01/24 12:34:05;;;;;;;12.80;7.43;;;;;;;4.08;79.94;99959.31;10471532;28;20143;-78
2021/01/24 12:39:16;;;;;;;15.98;10.10;;;;;;;4.11;79.41;99953.28;10485305;28;20131;-78
2021/01/24 12:44:16;;;;;;;17.73;8.85;;;;;;;4.01;78.78;99932.34;10450450;28;20618;-81
2021/01/24 12:49:17;;;;;;;12.77;6.97;;;;;;;4.10;77.56;99946.38;10432076;28;20457;-81
2021/01/24 12:54:17;;;;;;;12.20;5.72;;;;;;;3.65;77.28;99917.91;10399964;28;20092;-84
2021/01/24 12:59:18;;;;;;;8.73;5.43;;;;;;;3.46;79.17;99869.56;10409090;28;20059;-78
2021/01/24 13:04:19;;;;;;;8.43;4.88;;;;;;;3.91;78.34;99916.78;10453208;28;20419;-82
2021/01/24 13:09:19;;;;;;;9.98;5.38;;;;;;;2.99;78.06;99792.56;10429169;28;20068;-82
2021/01/24 13:14:20;;;;;;;15.90;6.45;;;;;;;3.86;78.93;99919.66;10456320;28;20525;-79
2021/01/24 13:19:28;;;;;;;10.93;5.82;;;;;;;3.84;78.71;99911.22;10430961;28;20033;-84
2021/01/24 13:24:32;;;;;;;10.93;6.35;;;;;;;3.20;79.89;99844.00;10453227;28;20042;-80
2021/01/24 13:29:34;;;;;;;13.18;6.72;;;;;;;3.22;80.11;99860.44;10450058;28;20036;-79
2021/01/24 13:34:35;;;;;;;14.07;7.70;;;;;;;3.38;81.88;99901.41;10428212;28;20583;-79
2021/01/24 13:39:36;;;;;;;17.88;8.70;;;;;;;3.21;83.11;99890.94;10441647;28;20056;-82
2021/01/24 13:44:41;;;;;;;15.88;9.23;;;;;;;2.82;83.12;99821.00;10428433;28;20068;-78
2021/01/24 13:49:43;;;;;;;15.68;10.32;;;;;;;3.38;82.79;99901.41;10435736;28;20155;-78
2021/01/24 13:54:48;;;;;;;16.38;9.07;;;;;;;3.25;82.58;99897.19;10427418;28;20041;-77
2021/01/24 13:59:49;;;;;;;16.08;9.48;;;;;;;2.85;83.13;99857.75;10437415;28;20069;-78
2021/01/24 14:04:49;;;;;;;16.42;8.35;;;;;;;2.75;81.48;99847.47;10435925;28;20278;-76
2021/01/24 14:09:50;;;;;;;14.65;7.78;;;;;;;2.80;81.40;99865.97;10447375;28;20197;-78
2021/01/24 14:14:50;;;;;;;16.25;7.43;;;;;;;3.07;81.07;99895.81;10427198;28;20099;-80
2021/01/24 14:19:51;;;;;;;15.73;7.40;;;;;;;2.58;81.76;99826.31;10441319;28;20048;-80
2021/01/24 14:24:51;;;;;;;18.23;8.10;;;;;;;2.72;81.77;99838.25;10411450;28;20047;-80
2021/01/24 14:29:52;;;;;;;13.57;8.07;;;;;;;2.58;82.77;99807.63;10402187;28;20632;-81
2021/01/24 14:34:52;;;;;;;15.73;7.18;;;;;;;2.53;82.43;99788.06;10400794;28;20162;-81
2021/01/24 14:39:53;;;;;;;14.70;8.07;;;;;;;3.08;82.35;99860.00;10402566;28;20045;-80
2021/01/24 14:44:56;;;;;;;14.98;8.40;;;;;;;3.07;83.14;99858.44;10399984;28;20053;-81
2021/01/24 14:50:01;;;;;;;20.65;9.90;;;;;;;2.67;82.00;99808.34;10397423;28;20048;-80
2021/01/24 14:55:02;;;;;;;17.95;9.77;;;;;;;3.07;82.93;99869.13;10383783;28;20040;-77
2021/01/24 15:00:06;;;;;;;19.33;10.98;;;;;;;2.65;82.77;99783.88;10372685;28;20538;-81
2021/01/24 15:05:07;;;;;;;14.18;8.43;;;;;;;3.16;81.63;99864.47;10409688;28;20050;-77
2021/01/24 15:10:08;;;;;;;16.25;8.75;;;;;;;2.04;80.60;99702.59;10404004;28;20041;-78
2021/01/24 15:15:09;;;;;;;16.67;8.10;;;;;;;2.91;80.88;99834.28;10400248;28;20418;-79
2021/01/24 15:20:11;;;;;;;14.98;7.70;;;;;;;2.88;80.48;99809.03;10404233;28;20132;-78
2021/01/24 15:25:12;;;;;;;21.30;8.07;;;;;;;2.97;79.87;99828.38;10384774;28;20041;-82
2021/01/24 15:30:13;;;;;;;18.73;8.02;;;;;;;2.62;81.56;99784.53;10411015;28;20537;-77
2021/01/24 15:35:16;;;;;;;14.98;7.43;;;;;;;2.22;81.06;99729.09;10400679;28;20042;-77
2021/01/24 15:40:16;;;;;;;18.75;8.27;;;;;;;2.86;81.83;99832.59;10414171;28;20101;-79
2021/01/24 15:45:17;;;;;;;16.13;8.23;;;;;;;2.60;83.64;99781.41;10395253;28;20102;-80
2021/01/24 15:50:19;;;;;;;;;;;;;;;2.76;83.82;99833.03;10435567;28;20056;-78
2021/01/24 15:55:20;;;;;;;16.77;7.65;;;;;;;2.42;84.39;99808.28;10442505;28;20422;-80
2021/01/24 16:00:23;;;;;;;14.45;8.27;;;;;;;1.57;84.21;99656.81;10431887;28;20051;-80
2021/01/24 16:05:23;;;;;;;15.73;8.90;;;;;;;2.54;84.76;99805.63;10436379;28;20072;-79
2021/01/24 16:10:24;;;;;;;17.63;8.05;;;;;;;2.10;84.69;99754.63;10428539;28;20033;-81
2021/01/24 16:15:24;;;;;;;15.43;8.32;;;;;;;2.09;85.47;99774.41;10435869;28;20521;-83
2021/01/24 16:20:25;;;;;;;19.45;8.57;;;;;;;2.34;86.18;99806.47;10410621;28;20364;-76
2021/01/24 16:25:25;;;;;;;13.88;7.35;;;;;;;2.14;86.10;99788.59;10389880;28;20147;-78
2021/01/24 16:30:25;;;;;;;16.48;9.00;;;;;;;2.30;86.60;99800.22;10420679;28;20037;-82
2021/01/24 16:35:26;;;;;;;16.05;9.15;;;;;;;2.21;87.19;99796.84;10424268;28;20046;-79
2021/01/24 16:40:27;;;;;;;18.85;9.88;;;;;;;1.77;87.31;99735.19;10437509;28;20060;-77
2021/01/24 16:45:27;;;;;;;18.48;11.13;;;;;;;1.80;87.66;99734.50;10440590;28;20056;-78
2021/01/24 16:50:27;;;;;;;19.63;10.45;;;;;;;1.93;87.57;99754.78;10418754;28;20041;-77
2021/01/24 16:55:28;;;;;;;18.73;9.88;;;;;;;2.10;88.02;99764.50;10433797;28;20116;-82
2021/01/24 17:00:28;;;;;;;17.10;9.88;;;;;;;1.71;87.94;99710.59;10413924;28;20052;-78
2021/01/24 17:05:29;;;;;;;15.63;9.70;;;;;;;2.08;87.14;99762.16;10424814;28;20699;-81
2021/01/24 17:10:30;;;;;;;17.88;10.48;;;;;;;1.81;88.10;99746.72;10439323;28;20118;-81
2021/01/24 17:15:30;;;;;;;18.23;10.52;;;;;;;2.03;88.56;99759.69;10387371;28;20448;-82
2021/01/24 17:20:31;;;;;;;17.67;9.57;;;;;;;1.39;88.10;99688.16;10436667;28;20046;-83
2021/01/24 17:25:34;;;;;;;18.88;10.00;;;;;;;1.96;87.83;99754.13;10436682;28;20575;-78
2021/01/24 17:30:35;;;;;;;18.85;10.20;;;;;;;1.63;88.42;99695.47;10447211;28;20464;-78
2021/01/24 17:35:36;;;;;;;18.42;9.32;;;;;;;1.78;87.99;99726.06;10442819;28;20095;-80
2021/01/24 17:40:36;;;;;;;16.33;8.27;;;;;;;1.48;87.58;99671.00;10426413;28;20040;-78
2021/01/24 17:45:40;;;;;;;18.15;9.85;;;;;;;1.43;86.96;99667.75;10436563;28;20762;-80
2021/01/24 17:50:40;;;;;;;14.98;8.43;;;;;;;1.89;86.77;99727.22;10412033;28;20044;-86
2021/01/24 17:55:41;;;;;;;12.68;6.90;;;;;;;1.79;85.74;99723.06;10444918;28;20090;-86
2021/01/24 18:00:41;;;;;;;18.13;8.80;;;;;;;1.83;86.89;99701.88;10463639;28;20539;-86
2021/01/24 18:05:42;;;;;;;12.35;7.43;;;;;;;1.90;87.08;99712.78;10463833;28;20040;-82
2021/01/24 18:10:43;;;;;;;23.70;10.68;;;;;;;1.58;86.49;99674.38;10461965;28;20079;-83
2021/01/24 18:15:43;;;;;;;13.57;7.28;;;;;;;1.81;86.45;99714.75;10457684;28;20025;-83
2021/01/24 18:20:44;;;;;;;15.95;8.10;;;;;;;1.77;86.39;99705.88;10465714;28;20037;-85
2021/01/24 18:25:44;;;;;;;15.40;7.88;;;;;;;1.64;87.51;99695.13;10462873;28;20036;-84
2021/01/24 18:30:45;;;;;;;15.40;7.50;;;;;;;1.48;87.05;99659.56;10442533;28;20041;-82
2021/01/24 18:35:45;;;;;;;16.85;7.88;;;;;;;1.46;86.87;99656.47;10440603;28;20509;-87
2021/01/24 18:40:47;;;;;;;15.13;7.72;;;;;;;1.73;87.83;99691.63;10450123;28;20025;-84
2021/01/24 18:45:48;;;;;;;18.53;9.93;;;;;;;1.25;88.81;99625.28;10430653;28;20633;-80
2021/01/24 18:50:49;;;;;;;16.85;10.00;;;;;;;1.51;89.25;99669.56;10420274;28;20348;-82
2021/01/24 18:55:49;;;;;;;16.75;8.75;;;;;;;1.15;90.89;99625.66;10428858;28;20048;-82
2021/01/24 19:00:50;;;;;;;16.98;9.73;;;;;;;1.03;91.62;99596.34;10432832;28;20493;-82
2021/01/24 19:05:51;;;;;;;13.93;8.18;;;;;;;0.79;92.84;99571.16;10428079;28;20044;-81
2021/01/24 19:10:51;;;;;;;22.02;8.63;;;;;;;1.43;93.16;99667.75;10428366;28;20048;-83
2021/01/24 19:15:52;;;;;;;22.50;11.30;;;;;;;1.12;93.82;99610.38;10425074;28;20052;-85
2021/01/24 19:20:52;;;;;;;14.10;9.55;;;;;;;1.30;94.56;99642.19;10418456;28;20117;-84
2021/01/24 19:25:53;;;;;;;19.33;10.65;;;;;;;1.26;94.92;99648.13;10429668;28;20040;-82
2021/01/24 19:30:54;;;;;;;18.15;9.32;;;;;;;0.74;95.93;99574.03;10414076;28;20596;-80
2021/01/24 19:35:54;;;;;;;23.17;10.07;;;;;;;1.26;96.60;99648.13;10405876;28;20138;-79
2021/01/24 19:40:55;;;;;;;19.30;9.48;;;;;;;0.67;96.56;99552.47;10392830;28;20041;-78
2021/01/24 19:45:56;;;;;;;17.90;9.25;;;;;;;1.24;96.89;99639.69;10416699;28;20116;-79
2021/01/24 19:50:56;;;;;;;16.63;8.35;;;;;;;1.15;97.25;99636.31;10423327;28;20567;-78
2021/01/24 19:55:57;;;;;;;17.27;8.73;;;;;;;1.07;96.99;99612.44;10434361;28;20033;-80
2021/01/24 20:00:58;;;;;;;13.40;7.47;;;;;;;0.67;97.38;99563.13;10435534;28;20060;-81
2021/01/24 20:05:58;;;;;;;12.20;7.32;;;;;;;0.68;98.33;99580.63;10415596;28;20446;-85
2021/01/24 20:10:59;;;;;;;13.68;7.18;;;;;;;0.92;99.21;99627.09;10421622;28;20041;-82
2021/01/24 20:15:59;;;;;;;13.13;8.05;;;;;;;0.90;99.67;99613.38;10406863;28;20044;-82
2021/01/24 20:20:59;;;;;;;12.70;6.82;;;;;;;0.69;99.66;99592.84;10437710;28;20045;-80
2021/01/24 20:26:00;;;;;;;11.65;6.28;;;;;;;0.87;99.38;99619.31;10389846;28;20036;-81
2021/01/24 20:31:01;;;;;;;14.32;7.88;;;;;;;0.68;100.00;99591.25;10402307;28;20117;-83
2021/01/24 20:36:02;;;;;;;14.50;8.27;;;;;;;0.73;99.96;99599.06;10375817;28;20043;-78
2021/01/24 20:41:02;;;;;;;20.80;10.38;;;;;;;0.84;100.00;99605.53;10430542;28;20030;-79
2021/01/24 20:46:03;;;;;;;18.95;8.95;;;;;;;0.53;100.00;99551.94;10420463;28;20056;-81
2021/01/24 20:51:03;;;;;;;17.83;8.93;;;;;;;0.68;100.00;99585.94;10415468;28;20482;-80
2021/01/24 20:56:04;;;;;;;21.25;9.57;;;;;;;0.44;100.00;99551.22;10413332;28;20041;-79
2021/01/24 21:01:05;;;;;;;16.85;9.32;;;;;;;0.56;100.00;99572.56;10417408;28;20040;-80
2021/01/24 21:06:05;;;;;;;18.17;10.27;;;;;;;0.79;100.00;99603.09;10420797;28;20508;-79
2021/01/24 21:11:06;;;;;;;17.33;11.10;;;;;;;0.72;100.00;99597.50;10419477;28;20047;-80
2021/01/24 21:16:06;;;;;;;19.27;11.65;;;;;;;0.51;100.00;99554.16;10411857;28;20156;-80
2021/01/24 21:21:07;;;;;;;15.90;10.27;;;;;;;0.78;100.00;99595.44;10422370;28;20090;-79
2021/01/24 21:26:07;;;;;;;17.50;10.32;;;;;;;0.57;100.00;99574.16;10418784;28;20041;-79
2021/01/24 21:31:08;;;;;;;16.38;9.13;;;;;;;0.59;100.00;99582.59;10413448;28;20029;-81
2021/01/24 21:36:10;;;;;;;20.90;13.07;;;;;;;-0.12;100.00;99491.03;10416590;28;20157;-82
2021/01/24 21:41:11;;;;;;;15.60;11.13;;;;;;;0.56;100.00;99599.16;10402296;28;20029;-78
2021/01/24 21:46:12;;;;;;;13.68;9.63;;;;;;;0.23;100.00;99553.84;10419927;28;20040;-79
2021/01/24 21:51:12;;;;;;;17.30;11.48;;;;;;;0.32;100.00;99584.59;10418834;28;20044;-79
2021/01/24 21:56:13;;;;;;;18.10;13.23;;;;;;;0.16;100.00;99575.59;10404542;28;20033;-77
2021/01/24 22:01:13;;;;;;;21.70;14.88;;;;;;;0.40;100.00;99607.72;10418336;28;20028;-81
2021/01/24 22:06:14;;;;;;;19.55;14.02;;;;;;;0.35;100.00;99594.59;10429117;28;20045;-78
2021/01/24 22:11:14;;;;;;;23.40;16.90;;;;;;;0.56;100.00;99609.81;10410369;28;20103;-76
2021/01/24 22:16:15;;;;;;;24.77;17.92;;;;;;;0.54;100.00;99612.00;10412440;28;20044;-75
2021/01/24 22:21:15;;;;;;;31.42;20.77;;;;;;;0.44;100.00;99602.50;10415869;28;21768;-75
2021/01/24 22:26:15;;;;;;;27.10;20.52;;;;;;;0.43;100.00;99605.50;10418316;28;20812;-75
2021/01/24 22:31:18;;;;;;;31.08;22.15;;;;;;;0.43;100.00;99616.16;10413472;28;20411;-76
2021/01/24 22:36:18;;;;;;;28.98;21.02;;;;;;;0.27;100.00;99582.13;10415021;28;20068;-74
2021/01/24 22:41:19;;;;;;;28.48;19.77;;;;;;;0.46;100.00;99631.44;10420187;28;20379;-74
2021/01/24 22:46:19;;;;;;;30.13;20.70;;;;;;;0.44;100.00;99625.66;10418640;28;20056;-74
2021/01/24 22:51:20;;;;;;;27.67;19.75;;;;;;;0.39;100.00;99606.13;10425092;28;21784;-74
2021/01/24 22:56:20;;;;;;;29.52;20.92;;;;;;;0.44;100.00;99612.38;10400159;28;20040;-74
2021/01/24 23:01:21;;;;;;;28.27;20.30;;;;;;;0.38;100.00;99617.88;10415496;28;20336;-74
2021/01/24 23:06:21;;;;;;;27.65;20.33;;;;;;;0.05;100.00;99574.41;10417690;28;20065;-74
2021/01/24 23:11:22;;;;;;;27.35;20.27;;;;;;;0.38;100.00;99628.50;10414270;28;20392;-75
2021/01/24 23:16:22;;;;;;;29.77;21.15;;;;;;;0.46;100.00;99636.78;10421915;28;20645;-75
2021/01/24 23:21:23;;;;;;;29.83;20.80;;;;;;;0.42;100.00;99647.25;10398556;28;20470;-75